| time (UTC) | temp F | wind direction | speed MPH | gust MPH | rain 1hr in | rain 24hr in | rain mn in | humidity % | barometer mb |
| 20260906111507 | 72 | 130 | 4.0 | 11.0 | 0.00 | 0.00 | 0.00 | 55 | 1014.7 |
| 20260906110007 | 74 | 188 | 2.0 | 14.0 | 0.00 | 0.00 | 0.00 | 54 | 1014.7 |
| 20260906104510 | 75 | 246 | 3.0 | 8.0 | 0.00 | 0.00 | 0.00 | 52 | 1014.6 |
| 20260906103011 | 76 | 204 | 4.0 | 7.0 | 0.00 | 0.00 | 0.00 | 50 | 1014.5 |
| 20260906101503 | 76 | 261 | 2.0 | 7.0 | 0.00 | 0.00 | 0.00 | 51 | 1014.4 |
| 20260906100005 | 79 | 267 | 5.0 | 10.0 | 0.00 | 0.00 | 0.00 | 50 | 1014.1 |
| 20260906094603 | 78 | 178 | 2.0 | 10.0 | 0.00 | 0.00 | 0.00 | 50 | 1014.1 |
| 20260906093059 | 77 | 146 | 0.0 | 4.0 | 0.00 | 0.00 | 0.00 | 51 | 1014.3 |
| 20260906091558 | 76 | 182 | 0.0 | 7.0 | 0.00 | 0.00 | 0.00 | 54 | 1014.5 |
| 20260906090058 | 77 | 114 | 3.0 | 8.0 | 0.00 | 0.00 | 0.00 | 51 | 1014.3 |
| 20260906084600 | 77 | 194 | 7.0 | 11.0 | 0.00 | 0.00 | 0.00 | 51 | 1014.3 |
| 20260906083053 | 76 | 116 | 0.0 | 7.0 | 0.00 | 0.00 | 0.00 | 54 | 1014.3 |
| 20260906081554 | 76 | 72 | 5.0 | 9.0 | 0.00 | 0.00 | 0.00 | 53 | 1014.3 |
| 20260906080056 | 77 | 83 | 6.0 | 10.0 | 0.00 | 0.00 | 0.00 | 52 | 1014.5 |
| 20260906074552 | 76 | 74 | 5.0 | 12.0 | 0.00 | 0.00 | 0.00 | 54 | 1014.2 |
| 20260906073051 | 76 | 97 | 3.0 | 10.0 | 0.00 | 0.00 | 0.00 | 53 | 1014.6 |
| 20260906071546 | 76 | 92 | 4.0 | 10.0 | 0.00 | 0.00 | 0.00 | 53 | 1014.4 |
| 20260906070043 | 76 | 71 | 4.0 | 11.0 | 0.00 | 0.00 | 0.00 | 52 | 1014.5 |
| 20260906064540 | 77 | 142 | 4.0 | 9.0 | 0.00 | 0.00 | 0.00 | 51 | 1014.3 |
| 20260906063044 | 76 | 123 | 3.0 | 8.0 | 0.00 | 0.00 | 0.00 | 51 | 1014.2 |
| 20260906061533 | 77 | 153 | 3.0 | 8.0 | 0.00 | 0.00 | 0.00 | 51 | 1014.3 |
| 20260906060028 | 76 | 103 | 2.0 | 6.0 | 0.00 | 0.00 | 0.00 | 52 | 1014.4 |
| 20260906054546 | 76 | 84 | 2.0 | 7.0 | 0.00 | 0.00 | 0.00 | 52 | 1014.5 |
| 20260906053021 | 76 | 105 | 1.0 | 4.0 | 0.00 | 0.00 | 0.00 | 51 | 1014.4 |
| 20260906051528 | 75 | 80 | 1.0 | 5.0 | 0.00 | 0.00 | 0.00 | 52 | 1014.4 |
| 20260906050019 | 75 | 42 | 1.0 | 5.0 | 0.00 | 0.00 | 0.00 | 52 | 1014.3 |
| 20260906044509 | 73 | 21 | 0.0 | 1.0 | 0.00 | 0.00 | 0.00 | 53 | 1014.5 |
| 20260906043005 | 70 | 21 | 0.0 | 1.0 | 0.00 | 0.00 | 0.00 | 55 | 1014.6 |
| 20260906041604 | 68 | 34 | 0.0 | 1.0 | 0.00 | 0.00 | 0.00 | 59 | 1014.7 |
| 20260906040103 | 67 | 34 | 0.0 | 1.0 | 0.00 | 0.00 | 0.00 | 60 | 1014.7 |
| 20260906034556 | 66 | 34 | 0.0 | 2.0 | 0.00 | 0.00 | 0.00 | 60 | 1014.6 |
| 20260906033054 | 66 | 19 | 1.0 | 3.0 | 0.00 | 0.00 | 0.00 | 60 | 1014.6 |
| 20260906031608 | 67 | 62 | 0.0 | 1.0 | 0.00 | 0.00 | 0.00 | 60 | 1014.6 |
| 20260906030050 | 67 | 62 | 0.0 | 1.0 | 0.00 | 0.00 | 0.00 | 61 | 1014.5 |
| 20260906024559 | 67 | 62 | 0.0 | 1.0 | 0.00 | 0.00 | 0.00 | 59 | 1014.4 |
| 20260906023057 | 67 | 62 | 0.0 | 1.0 | 0.00 | 0.00 | 0.00 | 60 | 1014.5 |
| 20260906021545 | 66 | 62 | 0.0 | 2.0 | 0.00 | 0.00 | 0.00 | 59 | 1014.7 |
| 20260906020044 | 67 | 62 | 0.0 | 0.0 | 0.00 | 0.00 | 0.00 | 59 | 1014.8 |
| 20260906014541 | 67 | 62 | 0.0 | 0.0 | 0.00 | 0.00 | 0.00 | 58 | 1014.8 |
| 20260906013039 | 68 | 62 | 0.0 | 0.0 | 0.00 | 0.00 | 0.00 | 58 | 1014.6 |
| 20260906011641 | 68 | 62 | 0.0 | 1.0 | 0.00 | 0.00 | 0.00 | 58 | 1014.6 |
| 20260906010046 | 69 | 62 | 0.0 | 1.0 | 0.00 | 0.00 | 0.00 | 57 | 1014.5 |
| 20260906004534 | 69 | 92 | 0.0 | 3.0 | 0.00 | 0.00 | 0.00 | 58 | 1014.5 |
| 20260906003032 | 69 | 114 | 0.0 | 1.0 | 0.00 | 0.00 | 0.00 | 57 | 1014.5 |
| 20260906001535 | 70 | 95 | 1.0 | 4.0 | 0.00 | 0.00 | 0.00 | 58 | 1014.6 |
| 20260906000030 | 69 | 121 | 1.0 | 6.0 | 0.00 | 0.00 | 0.00 | 58 | 1014.6 |
| 20260905234529 | 69 | 78 | 2.0 | 4.0 | 0.00 | 0.00 | 0.00 | 58 | 1014.7 |
| 20260905233027 | 69 | 86 | 2.0 | 3.0 | 0.00 | 0.00 | 0.00 | 57 | 1014.7 |
| 20260905231526 | 70 | 102 | 1.0 | 2.0 | 0.00 | 0.00 | 0.00 | 58 | 1014.9 |
| 20260905230031 | 70 | 67 | 1.0 | 4.0 | 0.00 | 0.00 | 0.00 | 58 | 1015.0 |
| 20260905224523 | 70 | 94 | 2.0 | 3.0 | 0.00 | 0.00 | 0.00 | 57 | 1015.1 |
| 20260905223022 | 70 | 83 | 2.0 | 6.0 | 0.00 | 0.00 | 0.00 | 57 | 1015.2 |
| 20260905221522 | 70 | 84 | 1.0 | 4.0 | 0.00 | 0.00 | 0.00 | 57 | 1015.2 |
| 20260905220023 | 70 | 73 | 2.0 | 7.0 | 0.00 | 0.00 | 0.00 | 57 | 1015.2 |
| 20260905214520 | 70 | 109 | 2.0 | 6.0 | 0.00 | 0.00 | 0.00 | 57 | 1015.0 |
| 20260905213019 | 70 | 92 | 2.0 | 7.0 | 0.00 | 0.00 | 0.00 | 57 | 1015.0 |
| 20260905211540 | 70 | 96 | 2.0 | 6.0 | 0.00 | 0.00 | 0.00 | 56 | 1015.2 |
| 20260905210014 | 70 | 103 | 2.0 | 6.0 | 0.00 | 0.00 | 0.00 | 57 | 1015.2 |
| 20260905204515 | 70 | 96 | 4.0 | 7.0 | 0.00 | 0.00 | 0.00 | 57 | 1015.1 |
| 20260905203013 | 70 | 45 | 3.0 | 7.0 | 0.00 | 0.00 | 0.00 | 57 | 1015.1 |
| 20260905201513 | 69 | 86 | 2.0 | 6.0 | 0.00 | 0.00 | 0.00 | 57 | 1015.1 |
| 20260905200013 | 69 | 85 | 3.0 | 5.0 | 0.00 | 0.00 | 0.00 | 58 | 1015.2 |
| 20260905194512 | 69 | 77 | 2.0 | 5.0 | 0.00 | 0.00 | 0.00 | 57 | 1015.3 |
| 20260905193011 | 69 | 69 | 0.0 | 3.0 | 0.00 | 0.00 | 0.00 | 58 | 1015.3 |
| 20260905191511 | 70 | 113 | 1.0 | 5.0 | 0.00 | 0.00 | 0.00 | 57 | 1015.4 |
| 20260905190010 | 70 | 115 | 1.0 | 4.0 | 0.00 | 0.00 | 0.00 | 57 | 1015.6 |
| 20260905184509 | 70 | 99 | 1.0 | 4.0 | 0.00 | 0.00 | 0.00 | 57 | 1015.6 |
| 20260905183008 | 70 | 65 | 1.0 | 4.0 | 0.00 | 0.00 | 0.00 | 57 | 1015.8 |
| 20260905181507 | 70 | 111 | 1.0 | 3.0 | 0.00 | 0.00 | 0.00 | 57 | 1016.1 |
| 20260905180007 | 70 | 94 | 1.0 | 3.0 | 0.00 | 0.00 | 0.00 | 57 | 1016.1 |
| 20260905174506 | 71 | 75 | 1.0 | 3.0 | 0.00 | 0.00 | 0.00 | 56 | 1016.3 |
| 20260905173008 | 71 | 65 | 1.0 | 4.0 | 0.00 | 0.00 | 0.00 | 55 | 1016.3 |
| 20260905171503 | 72 | 68 | 0.0 | 0.0 | 0.00 | 0.00 | 0.00 | 54 | 1016.4 |
| 20260905170005 | 73 | 68 | 0.0 | 0.0 | 0.00 | 0.00 | 0.00 | 53 | 1016.4 |
| 20260905164504 | 73 | 68 | 0.0 | 1.0 | 0.00 | 0.00 | 0.00 | 52 | 1016.3 |
| 20260905163002 | 74 | 68 | 0.0 | 3.0 | 0.00 | 0.00 | 0.00 | 52 | 1016.3 |
| 20260905161503 | 74 | 124 | 1.0 | 4.0 | 0.00 | 0.00 | 0.00 | 51 | 1016.2 |
| 20260905160100 | 74 | 82 | 2.0 | 7.0 | 0.00 | 0.00 | 0.00 | 51 | 1016.1 |
| 20260905154610 | 75 | 111 | 2.0 | 6.0 | 0.00 | 0.00 | 0.00 | 50 | 1016.1 |
| 20260905153059 | 76 | 90 | 1.0 | 6.0 | 0.00 | 0.00 | 0.00 | 50 | 1016.2 |
| 20260905151606 | 76 | 128 | 1.0 | 6.0 | 0.00 | 0.00 | 0.00 | 49 | 1016.1 |
| 20260905150058 | 77 | 72 | 3.0 | 6.0 | 0.00 | 0.00 | 0.00 | 48 | 1016.3 |
| 20260905144559 | 78 | 86 | 3.0 | 8.0 | 0.00 | 0.00 | 0.00 | 47 | 1015.9 |
| 20260905143057 | 78 | 59 | 3.0 | 8.0 | 0.00 | 0.00 | 0.00 | 44 | 1016.1 |
| 20260905141556 | 79 | 21 | 4.0 | 7.0 | 0.00 | 0.00 | 0.00 | 41 | 1016.0 |
| 20260905140056 | 80 | 74 | 3.0 | 9.0 | 0.00 | 0.00 | 0.00 | 43 | 1016.1 |
| 20260905134600 | 80 | 108 | 3.0 | 9.0 | 0.00 | 0.00 | 0.00 | 40 | 1016.2 |
| 20260905133057 | 80 | 181 | 1.0 | 9.0 | 0.00 | 0.00 | 0.00 | 43 | 1016.2 |
| 20260905131553 | 80 | 113 | 3.0 | 7.0 | 0.00 | 0.00 | 0.00 | 41 | 1016.3 |
| 20260905130052 | 80 | 109 | 2.0 | 9.0 | 0.00 | 0.00 | 0.00 | 40 | 1016.3 |
| 20260905124551 | 80 | 171 | 5.0 | 10.0 | 0.00 | 0.00 | 0.00 | 41 | 1016.5 |
| 20260905123051 | 80 | 72 | 3.0 | 10.0 | 0.00 | 0.00 | 0.00 | 41 | 1016.6 |
| 20260905121549 | 81 | 83 | 3.0 | 8.0 | 0.00 | 0.00 | 0.00 | 41 | 1016.6 |
| 20260905120048 | 81 | 106 | 3.0 | 10.0 | 0.00 | 0.00 | 0.00 | 40 | 1016.6 |
| 20260905114548 | 81 | 168 | 6.0 | 10.0 | 0.00 | 0.00 | 0.00 | 41 | 1016.7 |
| 20260905113047 | 81 | 140 | 3.0 | 12.0 | 0.00 | 0.00 | 0.00 | 39 | 1016.7 |